sensor_id;sensor_type;location;lat;lon;timestamp;P1;durP1;ratioP1;P2;durP2;ratioP2
74658;SDS011;63186;51.204;6.536;2023-04-03T00:01:14;10.80;;;5.70;;
74658;SDS011;63186;51.204;6.536;2023-04-03T00:03:40;9.15;;;5.30;;
74658;SDS011;63186;51.204;6.536;2023-04-03T00:06:09;9.13;;;5.22;;
74658;SDS011;63186;51.204;6.536;2023-04-03T00:08:36;11.68;;;5.68;;
74658;SDS011;63186;51.204;6.536;2023-04-03T00:11:02;11.27;;;6.13;;
74658;SDS011;63186;51.204;6.536;2023-04-03T00:13:28;8.57;;;4.50;;
74658;SDS011;63186;51.204;6.536;2023-04-03T00:15:53;9.05;;;5.05;;
74658;SDS011;63186;51.204;6.536;2023-04-03T00:18:19;10.00;;;4.97;;
74658;SDS011;63186;51.204;6.536;2023-04-03T00:20:45;8.95;;;5.10;;
74658;SDS011;63186;51.204;6.536;2023-04-03T00:23:10;9.17;;;4.77;;
74658;SDS011;63186;51.204;6.536;2023-04-03T00:25:35;7.93;;;4.73;;
74658;SDS011;63186;51.204;6.536;2023-04-03T00:28:01;8.73;;;5.07;;
74658;SDS011;63186;51.204;6.536;2023-04-03T00:30:27;9.77;;;4.95;;
74658;SDS011;63186;51.204;6.536;2023-04-03T00:32:53;9.40;;;4.97;;
74658;SDS011;63186;51.204;6.536;2023-04-03T00:35:19;9.02;;;4.88;;
74658;SDS011;63186;51.204;6.536;2023-04-03T00:37:45;9.70;;;5.43;;
74658;SDS011;63186;51.204;6.536;2023-04-03T00:40:11;8.63;;;5.07;;
74658;SDS011;63186;51.204;6.536;2023-04-03T00:42:39;9.32;;;4.78;;
74658;SDS011;63186;51.204;6.536;2023-04-03T00:47:30;8.93;;;4.93;;
74658;SDS011;63186;51.204;6.536;2023-04-03T00:49:56;8.70;;;5.03;;
74658;SDS011;63186;51.204;6.536;2023-04-03T00:52:23;7.80;;;4.53;;
74658;SDS011;63186;51.204;6.536;2023-04-03T00:54:54;8.25;;;4.25;;
74658;SDS011;63186;51.204;6.536;2023-04-03T00:57:22;8.85;;;5.15;;
74658;SDS011;63186;51.204;6.536;2023-04-03T00:59:49;8.02;;;4.18;;
74658;SDS011;63186;51.204;6.536;2023-04-03T01:02:18;8.43;;;4.20;;
74658;SDS011;63186;51.204;6.536;2023-04-03T01:04:44;9.27;;;4.72;;
74658;SDS011;63186;51.204;6.536;2023-04-03T01:07:12;10.05;;;4.80;;
74658;SDS011;63186;51.204;6.536;2023-04-03T01:09:47;9.43;;;4.70;;
74658;SDS011;63186;51.204;6.536;2023-04-03T01:12:20;8.70;;;4.80;;
74658;SDS011;63186;51.204;6.536;2023-04-03T01:14:52;8.23;;;4.60;;
74658;SDS011;63186;51.204;6.536;2023-04-03T01:20:34;10.02;;;5.25;;
74658;SDS011;63186;51.204;6.536;2023-04-03T01:25:30;8.68;;;4.57;;
74658;SDS011;63186;51.204;6.536;2023-04-03T01:27:56;8.35;;;3.78;;
74658;SDS011;63186;51.204;6.536;2023-04-03T01:30:24;9.93;;;4.75;;
74658;SDS011;63186;51.204;6.536;2023-04-03T01:32:54;10.85;;;5.03;;
74658;SDS011;63186;51.204;6.536;2023-04-03T01:35:20;8.87;;;4.90;;
74658;SDS011;63186;51.204;6.536;2023-04-03T01:37:45;9.68;;;5.30;;
74658;SDS011;63186;51.204;6.536;2023-04-03T01:40:10;9.40;;;4.80;;
74658;SDS011;63186;51.204;6.536;2023-04-03T01:42:36;8.07;;;4.63;;
74658;SDS011;63186;51.204;6.536;2023-04-03T01:45:01;7.73;;;3.93;;
74658;SDS011;63186;51.204;6.536;2023-04-03T01:47:26;9.43;;;4.60;;
74658;SDS011;63186;51.204;6.536;2023-04-03T01:49:52;8.13;;;4.63;;
74658;SDS011;63186;51.204;6.536;2023-04-03T01:52:17;9.77;;;5.27;;
74658;SDS011;63186;51.204;6.536;2023-04-03T01:54:42;9.10;;;4.10;;
74658;SDS011;63186;51.204;6.536;2023-04-03T01:57:07;9.00;;;4.93;;
74658;SDS011;63186;51.204;6.536;2023-04-03T01:59:33;8.63;;;3.97;;
74658;SDS011;63186;51.204;6.536;2023-04-03T02:01:58;8.80;;;4.20;;
74658;SDS011;63186;51.204;6.536;2023-04-03T02:04:23;9.47;;;3.80;;
74658;SDS011;63186;51.204;6.536;2023-04-03T02:06:49;9.63;;;4.63;;
74658;SDS011;63186;51.204;6.536;2023-04-03T02:09:14;7.38;;;4.35;;
74658;SDS011;63186;51.204;6.536;2023-04-03T02:11:39;8.10;;;4.55;;
74658;SDS011;63186;51.204;6.536;2023-04-03T02:14:05;9.00;;;5.00;;
74658;SDS011;63186;51.204;6.536;2023-04-03T02:16:30;11.07;;;6.50;;
74658;SDS011;63186;51.204;6.536;2023-04-03T02:18:55;9.37;;;5.13;;
74658;SDS011;63186;51.204;6.536;2023-04-03T02:21:21;11.00;;;6.68;;
74658;SDS011;63186;51.204;6.536;2023-04-03T02:23:46;9.80;;;5.93;;
74658;SDS011;63186;51.204;6.536;2023-04-03T02:26:13;10.50;;;6.10;;
74658;SDS011;63186;51.204;6.536;2023-04-03T02:28:39;11.88;;;6.38;;
74658;SDS011;63186;51.204;6.536;2023-04-03T02:31:06;11.77;;;5.82;;
74658;SDS011;63186;51.204;6.536;2023-04-03T02:33:32;11.93;;;6.65;;
74658;SDS011;63186;51.204;6.536;2023-04-03T02:35:58;11.68;;;6.70;;
74658;SDS011;63186;51.204;6.536;2023-04-03T02:38:24;12.15;;;6.72;;
74658;SDS011;63186;51.204;6.536;2023-04-03T02:40:50;12.65;;;7.15;;
74658;SDS011;63186;51.204;6.536;2023-04-03T02:43:16;11.98;;;7.05;;
74658;SDS011;63186;51.204;6.536;2023-04-03T02:45:42;11.50;;;7.20;;
74658;SDS011;63186;51.204;6.536;2023-04-03T02:48:08;11.63;;;7.18;;
74658;SDS011;63186;51.204;6.536;2023-04-03T02:50:33;14.90;;;6.87;;
74658;SDS011;63186;51.204;6.536;2023-04-03T02:52:58;12.23;;;7.03;;
74658;SDS011;63186;51.204;6.536;2023-04-03T02:55:24;11.00;;;5.60;;
74658;SDS011;63186;51.204;6.536;2023-04-03T02:57:50;13.95;;;7.22;;
74658;SDS011;63186;51.204;6.536;2023-04-03T03:00:15;13.60;;;7.17;;
74658;SDS011;63186;51.204;6.536;2023-04-03T03:02:40;11.68;;;6.78;;
74658;SDS011;63186;51.204;6.536;2023-04-03T03:05:06;11.38;;;7.22;;
74658;SDS011;63186;51.204;6.536;2023-04-03T03:07:32;11.27;;;6.88;;
74658;SDS011;63186;51.204;6.536;2023-04-03T03:09:57;11.10;;;6.47;;
74658;SDS011;63186;51.204;6.536;2023-04-03T03:12:23;10.83;;;5.57;;
74658;SDS011;63186;51.204;6.536;2023-04-03T03:14:49;10.82;;;6.20;;
74658;SDS011;63186;51.204;6.536;2023-04-03T03:17:14;10.73;;;6.57;;
74658;SDS011;63186;51.204;6.536;2023-04-03T03:19:40;12.45;;;6.55;;
74658;SDS011;63186;51.204;6.536;2023-04-03T03:22:05;11.07;;;6.70;;
74658;SDS011;63186;51.204;6.536;2023-04-03T03:24:30;11.00;;;6.10;;
74658;SDS011;63186;51.204;6.536;2023-04-03T03:26:56;10.80;;;6.10;;
74658;SDS011;63186;51.204;6.536;2023-04-03T03:29:21;12.90;;;7.40;;
74658;SDS011;63186;51.204;6.536;2023-04-03T03:31:46;14.32;;;6.35;;
74658;SDS011;63186;51.204;6.536;2023-04-03T03:34:12;11.77;;;6.40;;
74658;SDS011;63186;51.204;6.536;2023-04-03T03:36:37;11.73;;;6.63;;
74658;SDS011;63186;51.204;6.536;2023-04-03T03:39:03;10.68;;;5.97;;
74658;SDS011;63186;51.204;6.536;2023-04-03T03:41:28;10.57;;;5.93;;
74658;SDS011;63186;51.204;6.536;2023-04-03T03:43:53;10.37;;;5.73;;
74658;SDS011;63186;51.204;6.536;2023-04-03T03:46:19;12.60;;;6.00;;
74658;SDS011;63186;51.204;6.536;2023-04-03T03:48:44;11.20;;;6.22;;
74658;SDS011;63186;51.204;6.536;2023-04-03T03:51:10;10.52;;;6.15;;
74658;SDS011;63186;51.204;6.536;2023-04-03T03:53:35;9.37;;;5.10;;
74658;SDS011;63186;51.204;6.536;2023-04-03T03:56:00;9.73;;;5.22;;
74658;SDS011;63186;51.204;6.536;2023-04-03T03:58:25;12.17;;;4.97;;
74658;SDS011;63186;51.204;6.536;2023-04-03T04:00:51;9.13;;;4.43;;
74658;SDS011;63186;51.204;6.536;2023-04-03T04:03:16;8.35;;;4.47;;
74658;SDS011;63186;51.204;6.536;2023-04-03T04:05:41;9.37;;;4.23;;
74658;SDS011;63186;51.204;6.536;2023-04-03T04:08:07;12.67;;;5.20;;
74658;SDS011;63186;51.204;6.536;2023-04-03T04:10:32;9.97;;;5.23;;
74658;SDS011;63186;51.204;6.536;2023-04-03T04:12:58;9.35;;;6.00;;
74658;SDS011;63186;51.204;6.536;2023-04-03T04:15:23;9.00;;;5.00;;
74658;SDS011;63186;51.204;6.536;2023-04-03T04:17:50;7.80;;;5.13;;
74658;SDS011;63186;51.204;6.536;2023-04-03T04:20:15;9.90;;;4.70;;
74658;SDS011;63186;51.204;6.536;2023-04-03T04:22:41;9.13;;;4.55;;
74658;SDS011;63186;51.204;6.536;2023-04-03T04:25:06;9.60;;;4.97;;
74658;SDS011;63186;51.204;6.536;2023-04-03T04:27:32;7.82;;;3.60;;
74658;SDS011;63186;51.204;6.536;2023-04-03T04:29:57;8.73;;;4.40;;
74658;SDS011;63186;51.204;6.536;2023-04-03T04:32:22;8.37;;;4.60;;
74658;SDS011;63186;51.204;6.536;2023-04-03T04:34:47;8.60;;;4.53;;
74658;SDS011;63186;51.204;6.536;2023-04-03T04:37:13;9.47;;;3.97;;
74658;SDS011;63186;51.204;6.536;2023-04-03T04:39:38;8.20;;;4.20;;
74658;SDS011;63186;51.204;6.536;2023-04-03T04:42:03;8.70;;;4.20;;
74658;SDS011;63186;51.204;6.536;2023-04-03T04:44:29;8.53;;;4.20;;
74658;SDS011;63186;51.204;6.536;2023-04-03T04:46:54;7.30;;;3.57;;
74658;SDS011;63186;51.204;6.536;2023-04-03T04:49:19;11.23;;;4.10;;
74658;SDS011;63186;51.204;6.536;2023-04-03T04:51:45;8.80;;;4.25;;
74658;SDS011;63186;51.204;6.536;2023-04-03T04:54:10;8.82;;;4.45;;
74658;SDS011;63186;51.204;6.536;2023-04-03T04:56:35;7.83;;;3.70;;
74658;SDS011;63186;51.204;6.536;2023-04-03T04:59:01;7.97;;;3.37;;
74658;SDS011;63186;51.204;6.536;2023-04-03T05:01:26;7.28;;;4.00;;
74658;SDS011;63186;51.204;6.536;2023-04-03T05:03:51;7.57;;;3.80;;
74658;SDS011;63186;51.204;6.536;2023-04-03T05:06:17;6.53;;;3.40;;
74658;SDS011;63186;51.204;6.536;2023-04-03T05:08:42;10.70;;;3.53;;
74658;SDS011;63186;51.204;6.536;2023-04-03T05:11:07;9.53;;;3.70;;
74658;SDS011;63186;51.204;6.536;2023-04-03T05:13:32;8.13;;;4.97;;
74658;SDS011;63186;51.204;6.536;2023-04-03T05:15:58;8.87;;;3.83;;
74658;SDS011;63186;51.204;6.536;2023-04-03T05:18:23;9.93;;;3.72;;
74658;SDS011;63186;51.204;6.536;2023-04-03T05:20:49;7.80;;;3.88;;
74658;SDS011;63186;51.204;6.536;2023-04-03T05:23:15;9.55;;;4.07;;
74658;SDS011;63186;51.204;6.536;2023-04-03T05:25:41;9.18;;;3.13;;
74658;SDS011;63186;51.204;6.536;2023-04-03T05:28:08;12.27;;;4.22;;
74658;SDS011;63186;51.204;6.536;2023-04-03T05:30:34;11.05;;;4.43;;
74658;SDS011;63186;51.204;6.536;2023-04-03T05:32:59;8.23;;;3.23;;
74658;SDS011;63186;51.204;6.536;2023-04-03T05:35:25;8.25;;;3.53;;
74658;SDS011;63186;51.204;6.536;2023-04-03T05:37:50;7.43;;;3.17;;
74658;SDS011;63186;51.204;6.536;2023-04-03T05:40:15;6.43;;;3.60;;
74658;SDS011;63186;51.204;6.536;2023-04-03T05:42:41;8.93;;;3.30;;
74658;SDS011;63186;51.204;6.536;2023-04-03T05:45:06;7.17;;;3.43;;
74658;SDS011;63186;51.204;6.536;2023-04-03T05:47:31;6.70;;;3.13;;
74658;SDS011;63186;51.204;6.536;2023-04-03T05:49:57;7.37;;;3.17;;
74658;SDS011;63186;51.204;6.536;2023-04-03T05:52:23;5.45;;;2.85;;
74658;SDS011;63186;51.204;6.536;2023-04-03T05:57:17;6.07;;;2.80;;
74658;SDS011;63186;51.204;6.536;2023-04-03T05:59:43;8.00;;;3.38;;
74658;SDS011;63186;51.204;6.536;2023-04-03T06:02:13;7.75;;;3.22;;
74658;SDS011;63186;51.204;6.536;2023-04-03T06:04:40;5.43;;;2.92;;
74658;SDS011;63186;51.204;6.536;2023-04-03T06:07:05;8.10;;;3.00;;
74658;SDS011;63186;51.204;6.536;2023-04-03T06:09:32;5.95;;;2.70;;
74658;SDS011;63186;51.204;6.536;2023-04-03T06:11:58;7.78;;;3.00;;
74658;SDS011;63186;51.204;6.536;2023-04-03T06:14:24;5.28;;;2.78;;
74658;SDS011;63186;51.204;6.536;2023-04-03T06:16:49;11.57;;;3.17;;
74658;SDS011;63186;51.204;6.536;2023-04-03T06:19:15;7.73;;;2.60;;
74658;SDS011;63186;51.204;6.536;2023-04-03T06:21:40;4.50;;;2.73;;
74658;SDS011;63186;51.204;6.536;2023-04-03T06:24:06;6.85;;;3.00;;
74658;SDS011;63186;51.204;6.536;2023-04-03T06:26:31;8.13;;;2.58;;
74658;SDS011;63186;51.204;6.536;2023-04-03T06:28:58;5.53;;;2.72;;
74658;SDS011;63186;51.204;6.536;2023-04-03T06:31:23;7.63;;;3.00;;
74658;SDS011;63186;51.204;6.536;2023-04-03T06:33:49;6.30;;;2.63;;
74658;SDS011;63186;51.204;6.536;2023-04-03T06:36:15;8.50;;;3.10;;
74658;SDS011;63186;51.204;6.536;2023-04-03T06:38:44;5.68;;;2.22;;
74658;SDS011;63186;51.204;6.536;2023-04-03T06:41:10;8.13;;;2.50;;
74658;SDS011;63186;51.204;6.536;2023-04-03T06:43:36;5.53;;;2.47;;
74658;SDS011;63186;51.204;6.536;2023-04-03T06:46:01;7.13;;;2.20;;
74658;SDS011;63186;51.204;6.536;2023-04-03T06:48:27;6.13;;;2.75;;
74658;SDS011;63186;51.204;6.536;2023-04-03T06:50:52;5.60;;;2.50;;
74658;SDS011;63186;51.204;6.536;2023-04-03T06:53:18;10.95;;;2.45;;
74658;SDS011;63186;51.204;6.536;2023-04-03T06:55:43;6.78;;;2.58;;
74658;SDS011;63186;51.204;6.536;2023-04-03T06:58:08;6.27;;;2.40;;
74658;SDS011;63186;51.204;6.536;2023-04-03T07:00:34;4.97;;;1.85;;
74658;SDS011;63186;51.204;6.536;2023-04-03T07:02:59;5.38;;;2.15;;
74658;SDS011;63186;51.204;6.536;2023-04-03T07:05:25;6.88;;;2.33;;
74658;SDS011;63186;51.204;6.536;2023-04-03T07:07:51;4.45;;;1.90;;
74658;SDS011;63186;51.204;6.536;2023-04-03T07:10:17;5.63;;;2.42;;
74658;SDS011;63186;51.204;6.536;2023-04-03T07:12:42;7.47;;;2.15;;
74658;SDS011;63186;51.204;6.536;2023-04-03T07:15:08;6.57;;;2.43;;
74658;SDS011;63186;51.204;6.536;2023-04-03T07:17:34;7.68;;;2.65;;
74658;SDS011;63186;51.204;6.536;2023-04-03T07:20:00;6.60;;;2.40;;
74658;SDS011;63186;51.204;6.536;2023-04-03T07:22:26;6.03;;;2.05;;
74658;SDS011;63186;51.204;6.536;2023-04-03T07:24:51;7.40;;;2.50;;
74658;SDS011;63186;51.204;6.536;2023-04-03T07:27:16;7.87;;;2.70;;
74658;SDS011;63186;51.204;6.536;2023-04-03T07:29:42;9.10;;;2.28;;
74658;SDS011;63186;51.204;6.536;2023-04-03T07:32:09;5.47;;;2.25;;
74658;SDS011;63186;51.204;6.536;2023-04-03T07:34:34;4.60;;;1.98;;
74658;SDS011;63186;51.204;6.536;2023-04-03T07:37:00;6.25;;;2.17;;
74658;SDS011;63186;51.204;6.536;2023-04-03T07:39:27;6.55;;;2.05;;
74658;SDS011;63186;51.204;6.536;2023-04-03T07:41:53;12.02;;;2.20;;
74658;SDS011;63186;51.204;6.536;2023-04-03T07:44:20;9.48;;;2.35;;
74658;SDS011;63186;51.204;6.536;2023-04-03T07:46:46;4.75;;;1.77;;
74658;SDS011;63186;51.204;6.536;2023-04-03T07:49:11;4.30;;;1.92;;
74658;SDS011;63186;51.204;6.536;2023-04-03T07:51:37;8.48;;;3.97;;
74658;SDS011;63186;51.204;6.536;2023-04-03T07:54:03;8.27;;;2.10;;
74658;SDS011;63186;51.204;6.536;2023-04-03T07:56:29;8.75;;;2.88;;
74658;SDS011;63186;51.204;6.536;2023-04-03T07:58:54;8.18;;;2.35;;
74658;SDS011;63186;51.204;6.536;2023-04-03T08:01:20;5.30;;;1.70;;
74658;SDS011;63186;51.204;6.536;2023-04-03T08:03:45;6.30;;;2.15;;
74658;SDS011;63186;51.204;6.536;2023-04-03T08:06:10;5.60;;;2.43;;
74658;SDS011;63186;51.204;6.536;2023-04-03T08:08:36;5.78;;;1.92;;
74658;SDS011;63186;51.204;6.536;2023-04-03T08:11:01;6.53;;;2.30;;
74658;SDS011;63186;51.204;6.536;2023-04-03T08:13:28;3.25;;;1.80;;
74658;SDS011;63186;51.204;6.536;2023-04-03T08:15:55;5.15;;;1.85;;
74658;SDS011;63186;51.204;6.536;2023-04-03T08:18:22;4.20;;;1.60;;
74658;SDS011;63186;51.204;6.536;2023-04-03T08:20:49;5.57;;;2.08;;
74658;SDS011;63186;51.204;6.536;2023-04-03T08:23:15;4.80;;;1.92;;
74658;SDS011;63186;51.204;6.536;2023-04-03T08:25:42;7.35;;;1.63;;
74658;SDS011;63186;51.204;6.536;2023-04-03T08:28:09;5.22;;;2.13;;
74658;SDS011;63186;51.204;6.536;2023-04-03T08:30:38;6.80;;;1.58;;
74658;SDS011;63186;51.204;6.536;2023-04-03T08:35:30;4.97;;;1.27;;
74658;SDS011;63186;51.204;6.536;2023-04-03T08:37:55;5.40;;;2.45;;
74658;SDS011;63186;51.204;6.536;2023-04-03T08:40:21;7.55;;;3.10;;
74658;SDS011;63186;51.204;6.536;2023-04-03T08:42:56;3.95;;;1.73;;
74658;SDS011;63186;51.204;6.536;2023-04-03T08:45:46;4.50;;;1.70;;
74658;SDS011;63186;51.204;6.536;2023-04-03T08:50:50;5.53;;;1.88;;
74658;SDS011;63186;51.204;6.536;2023-04-03T08:53:19;4.70;;;1.83;;
74658;SDS011;63186;51.204;6.536;2023-04-03T08:55:47;3.92;;;1.40;;
74658;SDS011;63186;51.204;6.536;2023-04-03T09:00:46;5.63;;;1.35;;
74658;SDS011;63186;51.204;6.536;2023-04-03T09:03:16;5.18;;;1.73;;
74658;SDS011;63186;51.204;6.536;2023-04-03T09:05:46;3.22;;;1.30;;
74658;SDS011;63186;51.204;6.536;2023-04-03T09:08:28;3.85;;;1.30;;
74658;SDS011;63186;51.204;6.536;2023-04-03T09:13:48;4.10;;;1.52;;
74658;SDS011;63186;51.204;6.536;2023-04-03T09:17:00;2.10;;;0.88;;
74658;SDS011;63186;51.204;6.536;2023-04-03T09:21:58;4.43;;;2.17;;
74658;SDS011;63186;51.204;6.536;2023-04-03T09:24:28;6.03;;;1.65;;
74658;SDS011;63186;51.204;6.536;2023-04-03T09:26:56;3.53;;;1.30;;
74658;SDS011;63186;51.204;6.536;2023-04-03T09:29:27;4.47;;;1.30;;
74658;SDS011;63186;51.204;6.536;2023-04-03T09:31:56;2.40;;;1.02;;
74658;SDS011;63186;51.204;6.536;2023-04-03T09:34:35;1.83;;;0.93;;
74658;SDS011;63186;51.204;6.536;2023-04-03T09:37:02;2.33;;;1.20;;
74658;SDS011;63186;51.204;6.536;2023-04-03T09:39:31;2.60;;;1.10;;
74658;SDS011;63186;51.204;6.536;2023-04-03T09:42:31;3.25;;;1.20;;
74658;SDS011;63186;51.204;6.536;2023-04-03T09:45:18;2.75;;;1.17;;
74658;SDS011;63186;51.204;6.536;2023-04-03T09:48:37;4.10;;;1.23;;
74658;SDS011;63186;51.204;6.536;2023-04-03T09:53:37;3.35;;;1.23;;
74658;SDS011;63186;51.204;6.536;2023-04-03T09:58:40;4.82;;;1.33;;
74658;SDS011;63186;51.204;6.536;2023-04-03T10:01:20;4.80;;;1.27;;
74658;SDS011;63186;51.204;6.536;2023-04-03T10:04:05;4.20;;;1.33;;
74658;SDS011;63186;51.204;6.536;2023-04-03T10:07:30;3.20;;;1.20;;
74658;SDS011;63186;51.204;6.536;2023-04-03T10:14:34;4.00;;;1.20;;
74658;SDS011;63186;51.204;6.536;2023-04-03T10:19:46;3.70;;;1.23;;
74658;SDS011;63186;51.204;6.536;2023-04-03T10:22:20;3.72;;;1.45;;
74658;SDS011;63186;51.204;6.536;2023-04-03T10:25:03;2.72;;;1.15;;
74658;SDS011;63186;51.204;6.536;2023-04-03T10:32:55;5.50;;;1.70;;
74658;SDS011;63186;51.204;6.536;2023-04-03T10:35:37;2.45;;;1.20;;
74658;SDS011;63186;51.204;6.536;2023-04-03T10:41:04;3.15;;;1.63;;
74658;SDS011;63186;51.204;6.536;2023-04-03T10:46:44;3.17;;;1.23;;
74658;SDS011;63186;51.204;6.536;2023-04-03T10:54:56;5.32;;;1.65;;
74658;SDS011;63186;51.204;6.536;2023-04-03T10:57:32;2.92;;;1.48;;
74658;SDS011;63186;51.204;6.536;2023-04-03T10:59:58;7.30;;;1.60;;
74658;SDS011;63186;51.204;6.536;2023-04-03T11:05:03;4.53;;;1.37;;
74658;SDS011;63186;51.204;6.536;2023-04-03T11:07:38;6.57;;;1.63;;
74658;SDS011;63186;51.204;6.536;2023-04-03T11:10:13;3.63;;;1.27;;
74658;SDS011;63186;51.204;6.536;2023-04-03T11:15:38;2.47;;;1.20;;
74658;SDS011;63186;51.204;6.536;2023-04-03T11:18:06;3.17;;;1.30;;
74658;SDS011;63186;51.204;6.536;2023-04-03T11:20:37;7.28;;;1.42;;
74658;SDS011;63186;51.204;6.536;2023-04-03T11:23:11;3.95;;;1.48;;
74658;SDS011;63186;51.204;6.536;2023-04-03T11:25:44;2.58;;;1.27;;
74658;SDS011;63186;51.204;6.536;2023-04-03T11:28:14;5.45;;;1.63;;
74658;SDS011;63186;51.204;6.536;2023-04-03T11:30:43;4.75;;;1.60;;
74658;SDS011;63186;51.204;6.536;2023-04-03T11:33:42;4.95;;;1.20;;
74658;SDS011;63186;51.204;6.536;2023-04-03T11:36:39;4.43;;;1.45;;
74658;SDS011;63186;51.204;6.536;2023-04-03T11:41:48;3.08;;;1.30;;
74658;SDS011;63186;51.204;6.536;2023-04-03T11:44:30;6.70;;;1.65;;
74658;SDS011;63186;51.204;6.536;2023-04-03T11:46:59;2.75;;;1.08;;
74658;SDS011;63186;51.204;6.536;2023-04-03T12:13:38;4.50;;;1.13;;
74658;SDS011;63186;51.204;6.536;2023-04-03T12:16:04;3.35;;;1.30;;
74658;SDS011;63186;51.204;6.536;2023-04-03T12:19:24;2.42;;;1.05;;
74658;SDS011;63186;51.204;6.536;2023-04-03T12:21:21;3.95;;;1.25;;
74658;SDS011;63186;51.204;6.536;2023-04-03T12:27:03;3.53;;;1.55;;
74658;SDS011;63186;51.204;6.536;2023-04-03T12:37:19;2.50;;;1.10;;
74658;SDS011;63186;51.204;6.536;2023-04-03T12:39:54;3.13;;;1.02;;
74658;SDS011;63186;51.204;6.536;2023-04-03T12:45:20;4.38;;;1.23;;
74658;SDS011;63186;51.204;6.536;2023-04-03T12:47:48;2.35;;;1.10;;
74658;SDS011;63186;51.204;6.536;2023-04-03T12:50:27;5.43;;;2.13;;
74658;SDS011;63186;51.204;6.536;2023-04-03T12:53:02;3.97;;;1.40;;
74658;SDS011;63186;51.204;6.536;2023-04-03T12:55:31;6.28;;;1.35;;
74658;SDS011;63186;51.204;6.536;2023-04-03T12:57:56;5.50;;;1.83;;
74658;SDS011;63186;51.204;6.536;2023-04-03T13:00:34;3.85;;;1.27;;
74658;SDS011;63186;51.204;6.536;2023-04-03T13:03:03;3.90;;;1.58;;
74658;SDS011;63186;51.204;6.536;2023-04-03T13:05:31;3.00;;;1.08;;
74658;SDS011;63186;51.204;6.536;2023-04-03T13:07:58;4.25;;;1.63;;
74658;SDS011;63186;51.204;6.536;2023-04-03T13:10:26;2.63;;;1.40;;
74658;SDS011;63186;51.204;6.536;2023-04-03T13:17:47;4.30;;;0.98;;
74658;SDS011;63186;51.204;6.536;2023-04-03T13:25:20;2.13;;;0.93;;
74658;SDS011;63186;51.204;6.536;2023-04-03T13:27:47;2.33;;;0.90;;
74658;SDS011;63186;51.204;6.536;2023-04-03T13:30:21;2.80;;;1.35;;
74658;SDS011;63186;51.204;6.536;2023-04-03T13:32:51;3.05;;;1.27;;
74658;SDS011;63186;51.204;6.536;2023-04-03T13:38:07;3.65;;;1.70;;
74658;SDS011;63186;51.204;6.536;2023-04-03T13:40:48;4.35;;;1.25;;
74658;SDS011;63186;51.204;6.536;2023-04-03T13:43:17;3.05;;;1.20;;
74658;SDS011;63186;51.204;6.536;2023-04-03T13:45:55;4.45;;;1.42;;
74658;SDS011;63186;51.204;6.536;2023-04-03T13:48:38;1.75;;;1.05;;
74658;SDS011;63186;51.204;6.536;2023-04-03T13:54:15;3.65;;;1.40;;
74658;SDS011;63186;51.204;6.536;2023-04-03T13:56:42;3.80;;;1.23;;
74658;SDS011;63186;51.204;6.536;2023-04-03T14:04:15;4.38;;;1.60;;
74658;SDS011;63186;51.204;6.536;2023-04-03T14:06:43;2.00;;;1.20;;
74658;SDS011;63186;51.204;6.536;2023-04-03T14:09:08;3.00;;;1.20;;
74658;SDS011;63186;51.204;6.536;2023-04-03T14:11:34;2.78;;;1.10;;
74658;SDS011;63186;51.204;6.536;2023-04-03T14:14:01;3.92;;;1.10;;
74658;SDS011;63186;51.204;6.536;2023-04-03T14:16:31;4.78;;;1.50;;
74658;SDS011;63186;51.204;6.536;2023-04-03T14:18:59;3.55;;;1.27;;
74658;SDS011;63186;51.204;6.536;2023-04-03T14:21:25;3.13;;;1.33;;
74658;SDS011;63186;51.204;6.536;2023-04-03T14:23:50;3.75;;;1.23;;
74658;SDS011;63186;51.204;6.536;2023-04-03T14:26:17;4.83;;;1.57;;
74658;SDS011;63186;51.204;6.536;2023-04-03T14:28:46;2.72;;;1.20;;
74658;SDS011;63186;51.204;6.536;2023-04-03T14:31:14;3.53;;;1.45;;
74658;SDS011;63186;51.204;6.536;2023-04-03T14:33:41;4.85;;;1.27;;
74658;SDS011;63186;51.204;6.536;2023-04-03T14:36:11;3.20;;;1.33;;
74658;SDS011;63186;51.204;6.536;2023-04-03T14:43:36;2.33;;;1.10;;
74658;SDS011;63186;51.204;6.536;2023-04-03T14:46:02;4.03;;;1.20;;
74658;SDS011;63186;51.204;6.536;2023-04-03T14:48:27;3.42;;;1.30;;
74658;SDS011;63186;51.204;6.536;2023-04-03T14:50:54;2.47;;;0.82;;
74658;SDS011;63186;51.204;6.536;2023-04-03T14:53:20;3.97;;;1.70;;
74658;SDS011;63186;51.204;6.536;2023-04-03T14:55:50;4.68;;;1.73;;
74658;SDS011;63186;51.204;6.536;2023-04-03T14:58:17;2.53;;;1.20;;
74658;SDS011;63186;51.204;6.536;2023-04-03T15:00:44;3.83;;;1.25;;
74658;SDS011;63186;51.204;6.536;2023-04-03T15:03:13;6.20;;;1.40;;
74658;SDS011;63186;51.204;6.536;2023-04-03T15:05:44;2.22;;;1.10;;
74658;SDS011;63186;51.204;6.536;2023-04-03T15:08:15;3.47;;;1.35;;
74658;SDS011;63186;51.204;6.536;2023-04-03T15:10:44;2.85;;;1.20;;
74658;SDS011;63186;51.204;6.536;2023-04-03T15:13:10;4.63;;;1.48;;
74658;SDS011;63186;51.204;6.536;2023-04-03T15:15:37;2.78;;;1.25;;
74658;SDS011;63186;51.204;6.536;2023-04-03T15:18:02;3.40;;;1.50;;
74658;SDS011;63186;51.204;6.536;2023-04-03T15:20:28;6.18;;;1.58;;
74658;SDS011;63186;51.204;6.536;2023-04-03T15:22:55;3.53;;;1.38;;
74658;SDS011;63186;51.204;6.536;2023-04-03T15:25:21;3.10;;;1.30;;
74658;SDS011;63186;51.204;6.536;2023-04-03T15:27:47;3.67;;;1.50;;
74658;SDS011;63186;51.204;6.536;2023-04-03T15:30:15;3.95;;;1.60;;
74658;SDS011;63186;51.204;6.536;2023-04-03T15:32:42;2.80;;;1.52;;
74658;SDS011;63186;51.204;6.536;2023-04-03T15:35:07;3.88;;;2.05;;
74658;SDS011;63186;51.204;6.536;2023-04-03T15:37:32;5.13;;;1.38;;
74658;SDS011;63186;51.204;6.536;2023-04-03T15:39:58;5.63;;;1.80;;
74658;SDS011;63186;51.204;6.536;2023-04-03T15:42:23;3.47;;;1.90;;
74658;SDS011;63186;51.204;6.536;2023-04-03T15:44:49;2.05;;;1.00;;
74658;SDS011;63186;51.204;6.536;2023-04-03T15:47:14;4.90;;;1.20;;
74658;SDS011;63186;51.204;6.536;2023-04-03T15:49:39;2.05;;;1.05;;
74658;SDS011;63186;51.204;6.536;2023-04-03T15:52:05;2.78;;;1.40;;
74658;SDS011;63186;51.204;6.536;2023-04-03T15:54:30;6.97;;;2.28;;
74658;SDS011;63186;51.204;6.536;2023-04-03T15:56:56;5.88;;;1.63;;
74658;SDS011;63186;51.204;6.536;2023-04-03T15:59:22;5.22;;;1.48;;
74658;SDS011;63186;51.204;6.536;2023-04-03T16:01:48;5.28;;;1.80;;
74658;SDS011;63186;51.204;6.536;2023-04-03T16:04:14;2.72;;;1.33;;
74658;SDS011;63186;51.204;6.536;2023-04-03T16:06:40;3.70;;;1.48;;
74658;SDS011;63186;51.204;6.536;2023-04-03T16:09:06;2.90;;;1.30;;
74658;SDS011;63186;51.204;6.536;2023-04-03T16:11:32;4.47;;;1.52;;
74658;SDS011;63186;51.204;6.536;2023-04-03T16:13:57;2.40;;;1.10;;
74658;SDS011;63186;51.204;6.536;2023-04-03T16:16:23;5.72;;;1.73;;
74658;SDS011;63186;51.204;6.536;2023-04-03T16:18:49;4.53;;;1.33;;
74658;SDS011;63186;51.204;6.536;2023-04-03T16:21:15;3.78;;;1.80;;
74658;SDS011;63186;51.204;6.536;2023-04-03T16:23:41;3.78;;;1.42;;
74658;SDS011;63186;51.204;6.536;2023-04-03T16:26:07;3.50;;;1.40;;
74658;SDS011;63186;51.204;6.536;2023-04-03T16:28:32;3.33;;;1.20;;
74658;SDS011;63186;51.204;6.536;2023-04-03T16:30:58;3.42;;;1.67;;
74658;SDS011;63186;51.204;6.536;2023-04-03T16:33:25;3.50;;;1.38;;
74658;SDS011;63186;51.204;6.536;2023-04-03T16:35:51;4.63;;;2.33;;
74658;SDS011;63186;51.204;6.536;2023-04-03T16:38:17;2.85;;;1.60;;
74658;SDS011;63186;51.204;6.536;2023-04-03T16:40:43;3.33;;;1.35;;
74658;SDS011;63186;51.204;6.536;2023-04-03T16:43:09;2.83;;;1.20;;
74658;SDS011;63186;51.204;6.536;2023-04-03T16:45:35;3.70;;;1.20;;
74658;SDS011;63186;51.204;6.536;2023-04-03T16:48:00;3.00;;;0.98;;
74658;SDS011;63186;51.204;6.536;2023-04-03T16:50:26;3.77;;;1.40;;
74658;SDS011;63186;51.204;6.536;2023-04-03T16:52:51;2.87;;;1.20;;
74658;SDS011;63186;51.204;6.536;2023-04-03T16:55:16;3.70;;;1.27;;